Dwight, Kansas
Current Conditions -  °F | °C
As of 12:58 AM on Sunday 23 Nov 2014 (Local Time) from KFRI Reporting Station
Overcast Overcast  
Wind Chill: 56°   Ceiling: 1400
Heat Index: 56°   Visibility: 10mi
Dew Point: 56°   Wind: 15mph
Humidity: 99%   Direction: 200°SSW
Pressure: 29.58"   Gusts: 24mph
Location:  38.84°N, 96.59°W
Report Text: KFRI 230658Z AUTO 20013G21KT 10SM OVC014 14/13 A2958 RMK AO2 SLP013 T01360134
Loading
Personal Weather Stations






























Interactive Weather Map New forecast layout! Learn more

10-Day Weather Forecast

Advertisements
Track Severe Weather on mobile